Time;durP1;ratioP1;P1;durP2;ratioP2;P2;SDS_P1;SDS_P2;PMS_P1;PMS_P2;Temp;Humidity;BMP_temperature;BMP_pressure;BME280_temperature;BME280_humidity;BME280_pressure;Samples;Min_cycle;Max_cycle;Signal;HPM_P1;HPM_P2
2022/07/08 00:00:14;;;;;;;1.00;0.40;;;11.90;99.90;;;;;;5029702;28;20018;-71
2022/07/08 00:02:41;;;;;;;1.08;0.32;;;12.10;99.90;;;;;;5021268;28;20014;-69
2022/07/08 00:05:09;;;;;;;2.17;0.40;;;12.20;99.90;;;;;;5028886;28;20046;-69
2022/07/08 00:07:36;;;;;;;5.10;0.55;;;12.30;99.90;;;;;;5021222;28;20048;-70
2022/07/08 00:10:07;;;;;;;1.05;0.50;;;12.30;99.90;;;;;;5004353;28;20123;-70
2022/07/08 00:12:35;;;;;;;5.38;0.38;;;12.20;99.90;;;;;;5002096;28;20045;-70
2022/07/08 00:15:03;;;;;;;8.77;0.47;;;12.20;99.90;;;;;;5003773;28;20018;-70
2022/07/08 00:17:30;;;;;;;2.65;0.63;;;12.20;99.90;;;;;;4995238;28;20057;-69
2022/07/08 00:19:57;;;;;;;1.88;0.52;;;12.30;99.90;;;;;;4999213;28;20033;-70
2022/07/08 00:22:27;;;;;;;3.10;0.88;;;12.20;99.90;;;;;;5008890;28;20022;-69
2022/07/08 00:24:55;;;;;;;2.20;0.30;;;12.40;99.90;;;;;;5003185;28;20040;-69
2022/07/08 00:27:22;;;;;;;2.72;0.93;;;12.40;99.90;;;;;;5010121;28;20052;-69
2022/07/08 00:29:49;;;;;;;1.42;0.30;;;12.50;99.90;;;;;;5012323;28;20028;-69
2022/07/08 00:32:16;;;;;;;2.40;0.47;;;12.60;99.90;;;;;;5016621;28;20021;-68
2022/07/08 00:34:44;;;;;;;2.38;0.30;;;12.70;99.90;;;;;;5034402;28;20010;-68
2022/07/08 00:37:11;;;;;;;1.05;0.25;;;12.70;99.90;;;;;;5018821;28;20069;-70
2022/07/08 00:39:38;;;;;;;3.42;0.30;;;12.70;99.90;;;;;;5019451;28;20108;-69
2022/07/08 00:42:06;;;;;;;2.38;0.30;;;12.80;99.90;;;;;;5021392;28;20071;-69
2022/07/08 00:44:34;;;;;;;0.43;0.20;;;12.80;99.90;;;;;;5007724;28;20030;-70
2022/07/08 00:47:01;;;;;;;3.22;0.47;;;13.00;99.90;;;;;;5003234;28;20058;-69
2022/07/08 00:49:29;;;;;;;2.67;0.20;;;13.00;99.90;;;;;;5018788;28;20125;-69
2022/07/08 00:51:58;;;;;;;1.80;0.30;;;13.00;99.90;;;;;;5024089;28;20029;-69
2022/07/08 00:54:25;;;;;;;1.67;0.40;;;13.30;99.90;;;;;;5021902;28;20066;-69
2022/07/08 00:56:54;;;;;;;2.90;0.20;;;13.40;99.90;;;;;;5023571;28;20022;-70
2022/07/08 00:59:22;;;;;;;1.95;0.25;;;13.40;99.90;;;;;;5008498;28;20061;-69
2022/07/08 01:01:49;;;;;;;3.47;0.45;;;13.50;99.90;;;;;;5005306;28;20034;-70
2022/07/08 01:04:17;;;;;;;3.00;0.32;;;13.40;99.90;;;;;;5005557;28;20034;-70
2022/07/08 01:06:45;;;;;;;3.88;0.52;;;13.50;99.90;;;;;;5004505;28;20387;-69
2022/07/08 01:09:14;;;;;;;2.78;0.70;;;13.60;99.90;;;;;;5003083;28;20472;-69
2022/07/08 01:11:48;;;;;;;1.42;0.20;;;13.70;99.90;;;;;;5003487;28;20022;-69
2022/07/08 01:14:18;;;;;;;2.85;0.32;;;13.80;99.90;;;;;;5001027;28;20118;-68
2022/07/08 01:16:45;;;;;;;1.05;0.47;;;13.90;99.90;;;;;;5010990;28;20031;-68
2022/07/08 01:19:12;;;;;;;1.92;0.35;;;13.80;99.90;;;;;;5014785;28;20555;-69
2022/07/08 01:21:40;;;;;;;0.82;0.20;;;13.70;99.90;;;;;;5021697;28;20030;-68
2022/07/08 01:24:07;;;;;;;1.17;0.10;;;13.80;99.90;;;;;;5018759;28;20475;-69
2022/07/08 01:26:35;;;;;;;1.40;0.20;;;13.80;99.90;;;;;;5011782;28;20383;-69
2022/07/08 01:29:02;;;;;;;2.30;0.30;;;13.70;99.90;;;;;;5001277;28;20033;-69
2022/07/08 01:31:29;;;;;;;2.67;0.17;;;13.70;99.90;;;;;;5007749;28;20545;-69
2022/07/08 01:33:56;;;;;;;3.28;0.20;;;13.70;99.90;;;;;;5011257;28;20081;-69
2022/07/08 01:36:23;;;;;;;1.80;0.30;;;13.80;99.90;;;;;;5007258;28;20100;-69
2022/07/08 01:38:51;;;;;;;1.55;0.13;;;14.00;99.90;;;;;;5014908;28;20055;-69
2022/07/08 01:41:18;;;;;;;2.08;0.20;;;14.00;99.90;;;;;;5025515;28;20073;-69
2022/07/08 01:43:45;;;;;;;3.35;0.47;;;14.10;99.90;;;;;;5012781;28;20041;-69
2022/07/08 01:46:12;;;;;;;3.13;0.45;;;14.10;99.90;;;;;;5021791;28;20072;-68
2022/07/08 01:48:40;;;;;;;6.55;0.82;;;14.10;99.90;;;;;;5019259;28;20037;-68
2022/07/08 01:51:07;;;;;;;0.70;0.10;;;14.20;99.90;;;;;;5008900;28;20037;-68
2022/07/08 01:53:34;;;;;;;1.23;0.15;;;14.40;99.90;;;;;;5013190;28;20069;-68
2022/07/08 01:56:02;;;;;;;1.13;0.20;;;14.30;99.90;;;;;;5018611;28;20018;-68
2022/07/08 01:58:29;;;;;;;1.65;0.30;;;14.20;99.90;;;;;;5018743;28;20048;-68
2022/07/08 02:00:56;;;;;;;2.42;0.30;;;14.20;99.90;;;;;;5022958;28;20038;-69
2022/07/08 02:03:23;;;;;;;1.92;0.30;;;14.40;99.90;;;;;;5022386;28;20026;-68
2022/07/08 02:05:53;;;;;;;1.33;0.20;;;14.60;99.90;;;;;;5020547;28;20041;-68
2022/07/08 02:08:23;;;;;;;1.88;0.28;;;14.60;99.90;;;;;;5019147;28;20274;-68
2022/07/08 02:13:35;;;;;;;2.00;0.10;;;14.70;99.90;;;;;;5014830;28;20335;-68
2022/07/08 02:16:02;;;;;;;0.70;0.13;;;14.90;99.90;;;;;;5017060;28;20033;-68
2022/07/08 02:18:30;;;;;;;0.75;0.20;;;14.70;99.90;;;;;;4999841;28;20037;-69
2022/07/08 02:20:57;;;;;;;1.00;0.20;;;14.80;99.90;;;;;;5014207;28;20029;-69
2022/07/08 02:23:24;;;;;;;0.68;0.20;;;15.10;99.90;;;;;;5006742;28;20054;-69
2022/07/08 02:25:51;;;;;;;1.70;0.20;;;15.40;99.90;;;;;;4993713;28;20096;-68
2022/07/08 02:28:19;;;;;;;1.35;0.32;;;15.50;99.90;;;;;;5003600;28;20029;-68
2022/07/08 02:30:46;;;;;;;1.60;0.20;;;15.40;99.90;;;;;;5004145;28;20028;-68
2022/07/08 02:33:13;;;;;;;0.95;0.30;;;15.60;99.90;;;;;;5006028;28;20030;-68
2022/07/08 02:35:40;;;;;;;2.33;0.25;;;15.80;99.90;;;;;;5009702;28;20023;-69
2022/07/08 02:38:08;;;;;;;1.17;0.30;;;15.70;99.90;;;;;;5010208;28;20045;-67
2022/07/08 02:40:35;;;;;;;1.40;0.28;;;15.60;99.90;;;;;;5008306;28;20027;-68
2022/07/08 02:43:02;;;;;;;0.80;0.20;;;15.00;99.90;;;;;;5005334;28;20707;-68
2022/07/08 02:45:30;;;;;;;1.17;0.25;;;15.00;99.90;;;;;;5009580;28;20041;-68
2022/07/08 02:47:57;;;;;;;0.55;0.15;;;15.10;99.90;;;;;;5005073;28;20482;-68
2022/07/08 02:50:24;;;;;;;2.00;0.10;;;15.30;99.90;;;;;;5002584;28;20056;-68
2022/07/08 02:52:52;;;;;;;2.47;0.20;;;15.10;99.90;;;;;;5010862;28;20145;-68
2022/07/08 02:55:19;;;;;;;4.13;0.43;;;15.10;99.90;;;;;;5008894;28;20053;-68
2022/07/08 02:57:46;;;;;;;1.90;0.25;;;15.00;99.90;;;;;;5012035;28;20025;-67
2022/07/08 03:00:14;;;;;;;1.60;0.20;;;14.90;99.90;;;;;;5027899;28;20037;-67
2022/07/08 03:02:41;;;;;;;0.90;0.45;;;15.00;99.90;;;;;;5020072;28;20089;-67
2022/07/08 03:05:08;;;;;;;2.55;0.52;;;14.90;99.90;;;;;;5030584;28;20045;-67
2022/07/08 03:07:36;;;;;;;0.77;0.10;;;15.10;99.90;;;;;;5036651;28;20020;-66
2022/07/08 03:10:03;;;;;;;0.55;0.10;;;14.90;99.90;;;;;;5021253;28;20026;-67
2022/07/08 03:12:30;;;;;;;0.90;0.00;;;15.00;99.90;;;;;;5031205;28;20077;-67
2022/07/08 03:14:57;;;;;;;2.13;0.20;;;15.00;99.90;;;;;;5035283;28;20018;-66
2022/07/08 03:17:25;;;;;;;1.83;0.20;;;14.90;99.90;;;;;;5035839;28;20006;-66
2022/07/08 03:19:52;;;;;;;0.50;0.10;;;14.80;99.90;;;;;;5021952;28;20042;-67
2022/07/08 03:22:19;;;;;;;0.15;0.08;;;15.10;99.90;;;;;;5017970;28;20035;-67
2022/07/08 03:24:46;;;;;;;1.00;0.10;;;15.10;99.90;;;;;;5019869;28;20054;-67
2022/07/08 03:27:13;;;;;;;1.45;0.10;;;14.90;99.90;;;;;;5020860;28;20035;-66
2022/07/08 03:29:41;;;;;;;0.88;0.17;;;14.60;99.90;;;;;;5018516;28;20105;-67
2022/07/08 03:32:08;;;;;;;0.55;0.10;;;14.50;99.90;;;;;;5016193;28;20014;-66
2022/07/08 03:34:35;;;;;;;2.90;0.57;;;14.40;99.90;;;;;;5030432;28;20033;-66
2022/07/08 03:37:02;;;;;;;0.22;0.10;;;14.50;99.90;;;;;;5036819;28;20026;-66
2022/07/08 03:39:30;;;;;;;0.73;0.17;;;14.70;99.90;;;;;;5019931;28;20049;-66
2022/07/08 03:41:57;;;;;;;0.82;0.20;;;14.70;99.90;;;;;;5019550;28;20011;-66
2022/07/08 03:44:24;;;;;;;1.33;0.20;;;15.10;99.90;;;;;;5013142;28;20038;-66
2022/07/08 03:46:51;;;;;;;0.90;0.10;;;14.90;99.90;;;;;;4916100;28;2461199;-67
2022/07/08 03:49:18;;;;;;;1.38;0.03;;;14.80;99.90;;;;;;5001362;28;20117;-67
2022/07/08 03:51:46;;;;;;;0.88;0.10;;;14.70;99.90;;;;;;4994089;28;20364;-66
2022/07/08 03:54:13;;;;;;;0.45;0.10;;;14.70;99.90;;;;;;4994223;28;20053;-67
2022/07/08 03:56:40;;;;;;;0.82;0.20;;;14.60;99.90;;;;;;4994999;28;20030;-67
2022/07/08 03:59:07;;;;;;;1.35;0.00;;;14.60;99.90;;;;;;5003851;28;20033;-67
2022/07/08 04:01:35;;;;;;;0.80;0.10;;;14.70;99.90;;;;;;5013753;28;20108;-67
2022/07/08 04:04:05;;;;;;;0.15;0.05;;;14.60;99.90;;;;;;5001240;28;20042;-67
2022/07/08 04:06:32;;;;;;;0.25;0.05;;;14.80;99.90;;;;;;4996610;28;20034;-67
2022/07/08 04:08:59;;;;;;;0.47;0.10;;;14.60;99.90;;;;;;5009006;28;20442;-67
2022/07/08 04:11:27;;;;;;;0.47;0.10;;;14.70;99.90;;;;;;5012682;28;20030;-67
2022/07/08 04:13:54;;;;;;;0.32;0.00;;;14.70;99.90;;;;;;5019357;28;20064;-67
2022/07/08 04:16:21;;;;;;;0.57;0.10;;;14.50;99.90;;;;;;5009331;28;20034;-68
2022/07/08 04:18:48;;;;;;;0.47;0.08;;;14.50;99.90;;;;;;5010121;28;20035;-69
2022/07/08 04:21:16;;;;;;;4.22;0.20;;;14.60;99.90;;;;;;5018567;28;20056;-69
2022/07/08 04:23:43;;;;;;;0.30;0.00;;;14.40;99.90;;;;;;5017393;28;20061;-68
2022/07/08 04:26:10;;;;;;;1.02;0.10;;;14.20;99.90;;;;;;5012475;28;20025;-68
2022/07/08 04:28:37;;;;;;;1.67;0.30;;;14.30;99.90;;;;;;5012242;28;20023;-67
2022/07/08 04:31:05;;;;;;;0.40;0.10;;;14.50;99.90;;;;;;5018226;28;20034;-69
2022/07/08 04:33:32;;;;;;;0.85;0.10;;;14.40;99.90;;;;;;5018455;28;20024;-68
2022/07/08 04:35:59;;;;;;;0.45;0.00;;;14.30;99.90;;;;;;5005616;28;20053;-68
2022/07/08 04:38:26;;;;;;;0.47;0.00;;;14.20;99.90;;;;;;5004226;28;20501;-68
2022/07/08 04:40:56;;;;;;;1.60;0.10;;;14.20;99.50;;;;;;5014749;28;20045;-68
2022/07/08 04:43:23;;;;;;;0.17;0.10;;;14.20;99.90;;;;;;5014829;28;20065;-67
2022/07/08 04:45:51;;;;;;;0.93;0.10;;;14.20;99.90;;;;;;5018866;28;20098;-66
2022/07/08 04:48:18;;;;;;;0.13;0.00;;;14.20;99.90;;;;;;5026584;28;20042;-66
2022/07/08 04:50:46;;;;;;;0.70;0.32;;;14.20;99.90;;;;;;5027178;28;20108;-66
2022/07/08 04:53:13;;;;;;;0.52;0.10;;;14.20;99.90;;;;;;5025397;28;20021;-67
2022/07/08 04:55:41;;;;;;;1.48;0.10;;;14.20;99.90;;;;;;5026186;28;20034;-66
2022/07/08 04:58:08;;;;;;;2.28;0.22;;;14.30;99.90;;;;;;5032282;28;20026;-66
2022/07/08 05:00:35;;;;;;;1.30;0.10;;;14.30;99.90;;;;;;5030035;28;20018;-66
2022/07/08 05:03:03;;;;;;;0.60;0.10;;;14.30;99.90;;;;;;5025531;28;20043;-66
2022/07/08 05:05:30;;;;;;;1.02;0.10;;;14.30;99.90;;;;;;5031070;28;20028;-66
2022/07/08 05:07:58;;;;;;;0.52;0.20;;;14.30;99.90;;;;;;5031537;28;20033;-66
2022/07/08 05:10:27;;;;;;;2.50;1.08;;;14.40;99.90;;;;;;5029943;28;20022;-66
2022/07/08 05:12:55;;;;;;;2.50;0.30;;;14.30;99.90;;;;;;5027909;28;20049;-66
2022/07/08 05:15:22;;;;;;;0.28;0.00;;;14.30;99.60;;;;;;5009421;28;20040;-67
2022/07/08 05:17:52;;;;;;;0.08;0.00;;;14.20;99.90;;;;;;5015399;28;20028;-67
2022/07/08 05:20:20;;;;;;;0.95;0.10;;;14.10;99.90;;;;;;5015770;28;20108;-68
2022/07/08 05:22:47;;;;;;;3.20;0.20;;;14.10;99.90;;;;;;5007023;28;20036;-67
2022/07/08 05:25:15;;;;;;;0.43;0.00;;;14.00;99.90;;;;;;5016508;28;20044;-67
2022/07/08 05:27:42;;;;;;;1.30;0.10;;;14.00;99.90;;;;;;5024387;28;20032;-67
2022/07/08 05:30:11;;;;;;;0.00;0.00;;;14.00;99.80;;;;;;5019540;28;20034;-67
2022/07/08 05:32:40;;;;;;;0.43;0.00;;;14.00;99.90;;;;;;5009248;28;20497;-66
2022/07/08 05:35:09;;;;;;;1.25;0.20;;;14.00;99.90;;;;;;5005036;28;20035;-66
2022/07/08 05:37:38;;;;;;;1.63;0.13;;;14.00;99.90;;;;;;5010543;28;20014;-67
2022/07/08 05:40:10;;;;;;;0.43;0.10;;;14.00;99.90;;;;;;5014528;28;20025;-67
2022/07/08 05:42:39;;;;;;;0.80;0.10;;;14.00;99.90;;;;;;5002785;28;20498;-68
2022/07/08 05:45:07;;;;;;;0.93;0.15;;;14.00;99.90;;;;;;4993729;28;20033;-68
2022/07/08 05:47:35;;;;;;;0.65;0.10;;;14.00;99.90;;;;;;4995267;28;20399;-68
2022/07/08 05:50:02;;;;;;;1.02;0.70;;;13.90;99.90;;;;;;4994610;28;20030;-67
2022/07/08 05:52:29;;;;;;;0.47;0.05;;;13.90;99.90;;;;;;5010000;28;20097;-68
2022/07/08 05:54:57;;;;;;;0.90;0.17;;;13.80;99.90;;;;;;4997209;28;20029;-67
2022/07/08 05:57:24;;;;;;;1.55;0.60;;;13.80;99.90;;;;;;5014874;28;20104;-68
2022/07/08 05:59:51;;;;;;;0.20;0.00;;;13.70;99.90;;;;;;4996176;28;20036;-67
2022/07/08 06:02:19;;;;;;;1.00;0.20;;;13.70;99.90;;;;;;4997348;28;20026;-68
2022/07/08 06:04:46;;;;;;;1.13;0.30;;;13.70;99.90;;;;;;5009489;28;20513;-69
2022/07/08 06:07:13;;;;;;;3.22;0.20;;;13.60;99.90;;;;;;5004553;28;20023;-67
2022/07/08 06:09:41;;;;;;;0.95;0.20;;;13.60;99.90;;;;;;5005588;28;20056;-67
2022/07/08 06:12:08;;;;;;;2.45;0.35;;;13.60;99.90;;;;;;5014993;28;20026;-67
2022/07/08 06:14:36;;;;;;;0.55;0.13;;;13.50;99.90;;;;;;4998881;28;20018;-67
2022/07/08 06:17:03;;;;;;;1.20;0.20;;;13.40;99.90;;;;;;5001425;28;20084;-67
2022/07/08 06:19:30;;;;;;;1.05;0.20;;;13.40;99.90;;;;;;5013403;28;20026;-67
2022/07/08 06:21:58;;;;;;;0.57;0.20;;;13.30;99.90;;;;;;5015376;28;20041;-67
2022/07/08 06:24:25;;;;;;;1.13;0.20;;;13.30;99.90;;;;;;5014291;28;20108;-67
2022/07/08 06:26:52;;;;;;;0.52;0.10;;;13.30;99.90;;;;;;5006489;28;20482;-67
2022/07/08 06:29:20;;;;;;;0.50;0.10;;;13.20;99.90;;;;;;5009826;28;20545;-67
2022/07/08 06:31:47;;;;;;;0.98;0.17;;;13.10;99.90;;;;;;5004730;28;20088;-68
2022/07/08 06:34:14;;;;;;;1.25;0.10;;;13.10;99.90;;;;;;5005751;28;20018;-67
2022/07/08 06:36:42;;;;;;;1.30;0.13;;;13.00;99.90;;;;;;5011382;28;20025;-67
2022/07/08 06:39:09;;;;;;;1.73;0.20;;;13.00;99.90;;;;;;5004312;28;20030;-68
2022/07/08 06:41:36;;;;;;;2.22;0.20;;;12.90;99.90;;;;;;5002640;28;20105;-67
2022/07/08 06:44:04;;;;;;;0.63;0.20;;;12.90;99.90;;;;;;5001074;28;20149;-68
2022/07/08 06:46:32;;;;;;;1.33;0.30;;;12.80;99.90;;;;;;4998648;28;20046;-68
2022/07/08 06:48:59;;;;;;;4.97;0.55;;;12.70;99.90;;;;;;5001423;28;20018;-68
2022/07/08 06:51:27;;;;;;;1.05;0.20;;;12.70;99.90;;;;;;5007006;28;20034;-67
2022/07/08 06:56:39;;;;;;;1.00;0.32;;;12.60;99.90;;;;;;5008979;28;20743;-67
2022/07/08 06:59:06;;;;;;;0.90;0.40;;;12.60;99.90;;;;;;5007186;28;20105;-67
2022/07/08 07:01:34;;;;;;;1.23;0.30;;;12.60;99.90;;;;;;5007015;28;20561;-67
2022/07/08 07:04:01;;;;;;;1.40;0.10;;;12.50;99.90;;;;;;5007594;28;20113;-67
2022/07/08 07:06:28;;;;;;;1.63;0.68;;;12.40;99.90;;;;;;5006398;28;20045;-67
2022/07/08 07:08:56;;;;;;;3.17;1.00;;;12.30;99.90;;;;;;5004474;28;20076;-67
2022/07/08 07:11:23;;;;;;;2.35;0.68;;;12.30;99.90;;;;;;5007979;28;20105;-67
2022/07/08 07:13:50;;;;;;;4.63;0.90;;;12.30;99.90;;;;;;5002383;28;20163;-67
2022/07/08 07:16:18;;;;;;;2.47;1.00;;;12.30;99.90;;;;;;5003635;28;20018;-67
2022/07/08 07:18:45;;;;;;;2.95;0.77;;;12.20;99.90;;;;;;5005484;28;20418;-67
2022/07/08 07:21:12;;;;;;;1.25;0.30;;;12.20;99.90;;;;;;5002565;28;20101;-68
2022/07/08 07:23:39;;;;;;;0.90;0.30;;;12.10;99.90;;;;;;5005443;28;20049;-67
2022/07/08 07:26:07;;;;;;;1.05;0.40;;;12.10;99.90;;;;;;5005653;28;20482;-66
2022/07/08 07:28:35;;;;;;;0.65;0.35;;;12.10;99.90;;;;;;5000017;28;20027;-67
2022/07/08 07:31:03;;;;;;;0.98;0.35;;;12.00;99.90;;;;;;5007112;28;20033;-67
2022/07/08 07:33:30;;;;;;;1.58;0.50;;;12.00;99.90;;;;;;4997651;28;20030;-67
2022/07/08 07:35:57;;;;;;;2.90;0.38;;;12.00;99.90;;;;;;5002218;28;20422;-67
2022/07/08 07:38:25;;;;;;;1.70;0.30;;;12.00;99.90;;;;;;4999968;28;20026;-66
2022/07/08 07:40:52;;;;;;;1.30;0.30;;;12.00;99.90;;;;;;5007084;28;20376;-67
2022/07/08 07:43:19;;;;;;;1.58;0.50;;;11.90;99.90;;;;;;4998322;28;20478;-67
2022/07/08 07:45:46;;;;;;;3.65;0.65;;;11.90;99.90;;;;;;5004286;28;20061;-66
2022/07/08 07:48:14;;;;;;;1.45;0.25;;;11.80;99.90;;;;;;5001451;28;20025;-67
2022/07/08 07:50:41;;;;;;;1.38;0.35;;;11.90;99.90;;;;;;5004781;28;20026;-67
2022/07/08 07:53:09;;;;;;;1.10;0.35;;;11.90;99.90;;;;;;5004296;28;20087;-66
2022/07/08 07:55:36;;;;;;;2.30;0.40;;;11.80;99.90;;;;;;4997411;28;20048;-67
2022/07/08 07:58:04;;;;;;;1.30;0.40;;;11.80;99.90;;;;;;5007234;28;20057;-67
2022/07/08 08:00:31;;;;;;;2.90;0.50;;;11.80;99.90;;;;;;5009071;28;20471;-68
2022/07/08 08:02:58;;;;;;;1.33;0.50;;;11.80;99.90;;;;;;5008336;28;20054;-66
2022/07/08 08:05:25;;;;;;;1.45;0.35;;;11.80;99.90;;;;;;5000706;28;20486;-66
2022/07/08 08:07:52;;;;;;;1.58;0.32;;;11.80;99.90;;;;;;5011518;28;20371;-67
2022/07/08 08:10:20;;;;;;;2.03;0.70;;;11.80;99.90;;;;;;5004768;28;20080;-67
2022/07/08 08:12:47;;;;;;;1.30;0.45;;;11.80;99.90;;;;;;5011061;28;20133;-67
2022/07/08 08:15:14;;;;;;;2.15;0.60;;;11.70;99.90;;;;;;5008348;28;20029;-67
2022/07/08 08:17:43;;;;;;;1.65;0.50;;;11.70;99.90;;;;;;5008611;28;20099;-67
2022/07/08 08:20:12;;;;;;;2.20;0.65;;;11.70;99.90;;;;;;5010142;28;20039;-67
2022/07/08 08:22:39;;;;;;;1.35;0.30;;;11.70;99.90;;;;;;5009293;28;20065;-67
2022/07/08 08:25:06;;;;;;;2.45;0.70;;;11.60;99.90;;;;;;5004035;28;20092;-67
2022/07/08 08:27:38;;;;;;;5.10;2.53;;;11.70;99.90;;;;;;5004788;28;20433;-68
2022/07/08 08:30:06;;;;;;;2.33;1.20;;;11.60;99.90;;;;;;5006422;28;20014;-67
2022/07/08 08:32:34;;;;;;;1.63;0.60;;;11.60;99.90;;;;;;5005940;28;20027;-68
2022/07/08 08:35:01;;;;;;;1.45;0.60;;;11.60;99.90;;;;;;5007308;28;20501;-68
2022/07/08 08:37:28;;;;;;;4.80;2.70;;;11.60;99.90;;;;;;5005061;28;20029;-67
2022/07/08 08:39:56;;;;;;;2.45;0.55;;;11.50;99.90;;;;;;5005221;28;20025;-68
2022/07/08 08:42:23;;;;;;;0.35;0.20;;;11.60;99.90;;;;;;5010615;28;20037;-67
2022/07/08 08:44:51;;;;;;;2.30;0.60;;;11.50;99.90;;;;;;5009424;28;20041;-67
2022/07/08 08:47:21;;;;;;;3.10;0.70;;;11.50;99.90;;;;;;5006348;28;20602;-68
2022/07/08 08:49:49;;;;;;;2.53;1.10;;;11.50;99.90;;;;;;5006432;28;20026;-67
2022/07/08 08:52:17;;;;;;;1.27;0.30;;;11.40;99.90;;;;;;5006943;28;20097;-67
2022/07/08 08:54:46;;;;;;;2.38;0.60;;;11.50;99.90;;;;;;5009819;28;20052;-67
2022/07/08 08:57:14;;;;;;;1.38;0.55;;;11.40;99.90;;;;;;5004309;28;20104;-68
2022/07/08 08:59:41;;;;;;;2.38;0.70;;;11.40;99.90;;;;;;5011634;28;20030;-67
2022/07/08 09:02:11;;;;;;;2.83;1.00;;;11.40;99.90;;;;;;5009813;28;20526;-68
2022/07/08 09:04:38;;;;;;;1.33;0.55;;;11.30;99.90;;;;;;5003922;28;20681;-68
2022/07/08 09:07:06;;;;;;;2.08;0.95;;;11.30;99.90;;;;;;5008295;28;20038;-68
2022/07/08 09:09:33;;;;;;;2.10;0.80;;;11.30;99.90;;;;;;5017559;28;20013;-68
2022/07/08 09:12:18;;;;;;;2.22;0.75;;;11.30;99.90;;;;;;5017080;28;20021;-68
2022/07/08 09:14:54;;;;;;;;;;;11.30;99.90;;;;;;5003169;28;20026;-68
2022/07/08 09:17:21;;;;;;;4.55;0.73;;;11.30;99.90;;;;;;5007754;28;19909;-68
2022/07/08 09:19:50;;;;;;;2.05;0.50;;;11.30;99.90;;;;;;5010889;28;20450;-68
2022/07/08 09:22:20;;;;;;;3.25;0.90;;;11.30;99.90;;;;;;5006124;28;20387;-68
2022/07/08 09:24:48;;;;;;;1.92;0.50;;;11.20;99.90;;;;;;5009537;28;20117;-68
2022/07/08 09:27:16;;;;;;;1.63;0.80;;;11.20;99.90;;;;;;5011816;28;20026;-68
2022/07/08 09:30:03;;;;;;;2.58;1.02;;;11.20;99.90;;;;;;5009439;28;20065;-68
2022/07/08 09:32:30;;;;;;;4.97;2.15;;;11.10;99.90;;;;;;5006862;28;20553;-69
2022/07/08 09:34:57;;;;;;;2.08;0.70;;;11.10;99.90;;;;;;5013434;28;20394;-68
2022/07/08 09:37:25;;;;;;;2.67;1.02;;;11.10;99.90;;;;;;5012888;28;20530;-68
2022/07/08 09:39:52;;;;;;;4.63;0.68;;;11.00;99.90;;;;;;5015467;28;20022;-68
2022/07/08 09:42:19;;;;;;;2.50;0.80;;;11.10;99.90;;;;;;5009833;28;20086;-68
2022/07/08 09:44:53;;;;;;;3.40;1.95;;;11.10;99.90;;;;;;5008964;28;20172;-68
2022/07/08 09:47:20;;;;;;;3.85;1.40;;;11.00;99.90;;;;;;5011217;28;20057;-67
2022/07/08 09:49:48;;;;;;;2.00;1.17;;;11.00;99.90;;;;;;5025987;28;20032;-66
2022/07/08 09:52:25;;;;;;;2.38;1.00;;;11.00;99.90;;;;;;5018776;28;20571;-67
2022/07/08 09:55:05;;;;;;;3.42;1.23;;;11.00;99.90;;;;;;5013428;28;20045;-68
2022/07/08 09:57:32;;;;;;;3.30;1.25;;;11.00;99.90;;;;;;5015959;28;20101;-67
2022/07/08 10:00:00;;;;;;;1.77;0.88;;;10.90;99.90;;;;;;5015668;28;20022;-68
2022/07/08 10:02:29;;;;;;;2.95;1.10;;;10.90;99.90;;;;;;5017524;28;20034;-66
2022/07/08 10:04:56;;;;;;;3.50;0.82;;;10.90;99.90;;;;;;5009603;28;20034;-67
2022/07/08 10:07:23;;;;;;;2.63;0.90;;;10.80;99.90;;;;;;5011561;28;20029;-67
2022/07/08 10:09:50;;;;;;;2.28;1.25;;;10.80;99.90;;;;;;4996336;28;20034;-67
2022/07/08 10:12:19;;;;;;;2.63;0.98;;;10.70;99.90;;;;;;5005983;28;20068;-67
2022/07/08 10:14:47;;;;;;;1.48;0.90;;;10.60;99.90;;;;;;5016376;28;20029;-67
2022/07/08 10:17:19;;;;;;;5.35;2.63;;;10.70;99.90;;;;;;5017276;28;20396;-66
2022/07/08 10:19:47;;;;;;;1.45;0.82;;;10.70;99.90;;;;;;5018548;28;20136;-66
2022/07/08 10:22:16;;;;;;;1.80;0.70;;;10.80;99.90;;;;;;5017308;28;20026;-66
2022/07/08 10:24:46;;;;;;;1.60;0.85;;;10.80;99.90;;;;;;5015508;28;20035;-66
2022/07/08 10:27:13;;;;;;;1.52;0.85;;;10.80;99.90;;;;;;5009724;28;20025;-66
2022/07/08 10:29:40;;;;;;;1.92;0.70;;;10.90;99.90;;;;;;5016427;28;20368;-67
2022/07/08 10:32:26;;;;;;;3.33;1.48;;;10.90;99.90;;;;;;5018302;28;20034;-66
2022/07/08 10:35:22;;;;;;;1.38;0.73;;;10.80;99.90;;;;;;5023732;28;20034;-67
2022/07/08 10:37:57;;;;;;;2.83;0.80;;;10.80;99.90;;;;;;5016653;28;20053;-67
2022/07/08 10:40:47;;;;;;;1.65;0.85;;;10.80;99.90;;;;;;5003560;28;20042;-67
2022/07/08 10:43:22;;;;;;;3.72;0.98;;;10.70;99.90;;;;;;5016419;28;20374;-67
2022/07/08 10:46:12;;;;;;;2.65;1.10;;;10.70;99.90;;;;;;5014672;28;20053;-67
2022/07/08 10:48:45;;;;;;;2.40;1.40;;;10.70;99.90;;;;;;5018023;28;20525;-67
2022/07/08 10:51:24;;;;;;;5.72;1.50;;;10.70;99.90;;;;;;5016700;28;20014;-67
2022/07/08 10:53:58;;;;;;;5.18;1.00;;;10.70;99.90;;;;;;5015820;28;20647;-67
2022/07/08 10:56:54;;;;;;;2.00;1.10;;;10.70;99.90;;;;;;5006130;28;20037;-67
2022/07/08 10:59:38;;;;;;;6.28;1.50;;;10.60;99.90;;;;;;5007240;28;20038;-67
2022/07/08 11:02:09;;;;;;;3.07;1.07;;;10.70;99.90;;;;;;5015888;28;20045;-66
2022/07/08 11:04:37;;;;;;;1.88;1.00;;;10.60;99.90;;;;;;5017114;28;20433;-66
2022/07/08 11:07:29;;;;;;;3.25;1.27;;;10.60;99.90;;;;;;5016126;28;20044;-66
2022/07/08 11:10:05;;;;;;;3.63;1.05;;;10.50;99.90;;;;;;5002100;28;20030;-66
2022/07/08 11:12:37;;;;;;;5.03;1.55;;;10.50;99.90;;;;;;5012412;28;20087;-66
2022/07/08 11:15:12;;;;;;;5.32;2.00;;;10.50;99.90;;;;;;4997775;28;20475;-67
2022/07/08 11:17:41;;;;;;;4.47;1.70;;;10.60;99.90;;;;;;5015187;28;20022;-66
2022/07/08 11:20:11;;;;;;;3.90;0.90;;;10.50;99.90;;;;;;5015612;28;20087;-66
2022/07/08 11:22:41;;;;;;;6.05;1.25;;;10.50;99.90;;;;;;5000875;28;20056;-67
2022/07/08 11:25:10;;;;;;;2.55;1.02;;;10.40;99.90;;;;;;5016985;28;20434;-67
2022/07/08 11:27:38;;;;;;;3.65;1.20;;;10.50;99.90;;;;;;5012665;28;20509;-67
2022/07/08 11:30:11;;;;;;;3.03;1.30;;;10.50;99.90;;;;;;5000793;28;20042;-67
2022/07/08 11:32:39;;;;;;;3.35;1.67;;;10.40;99.90;;;;;;5014332;28;20054;-67
2022/07/08 11:35:07;;;;;;;3.55;1.23;;;10.50;99.90;;;;;;5013657;28;20022;-67
2022/07/08 11:37:42;;;;;;;3.15;1.25;;;10.50;99.90;;;;;;5020407;28;20022;-67
2022/07/08 11:40:10;;;;;;;4.60;1.65;;;10.40;99.90;;;;;;5011038;28;20065;-66
2022/07/08 11:42:41;;;;;;;3.13;1.60;;;10.40;99.90;;;;;;5017909;28;20101;-66
2022/07/08 11:45:13;;;;;;;4.43;1.13;;;10.50;99.90;;;;;;5014710;28;20025;-67
2022/07/08 11:47:40;;;;;;;2.30;1.00;;;10.40;99.90;;;;;;5012381;28;20508;-67
2022/07/08 11:50:10;;;;;;;2.20;0.90;;;10.40;99.90;;;;;;5011247;28;20030;-66
2022/07/08 11:52:37;;;;;;;2.17;1.15;;;10.30;99.90;;;;;;5003574;28;20052;-68
2022/07/08 11:55:08;;;;;;;3.28;1.17;;;10.20;99.90;;;;;;5004984;28;20097;-68
2022/07/08 11:57:43;;;;;;;3.83;1.52;;;10.20;99.90;;;;;;5003049;28;20034;-67
2022/07/08 12:00:11;;;;;;;2.75;1.25;;;10.10;99.90;;;;;;5002796;28;20041;-67
2022/07/08 12:02:38;;;;;;;3.67;1.65;;;10.10;99.90;;;;;;4999852;28;20475;-67
2022/07/08 12:05:14;;;;;;;3.25;1.10;;;10.10;99.90;;;;;;5006521;28;20080;-67
2022/07/08 12:07:42;;;;;;;3.72;1.10;;;10.10;99.90;;;;;;5011123;28;20437;-67
2022/07/08 12:10:09;;;;;;;3.17;1.10;;;10.10;99.90;;;;;;5012050;28;20096;-68
2022/07/08 12:12:36;;;;;;;3.35;1.05;;;10.20;99.90;;;;;;5003289;28;20041;-68
2022/07/08 12:15:15;;;;;;;2.92;1.15;;;10.20;99.90;;;;;;5001660;28;20046;-68
2022/07/08 12:17:42;;;;;;;3.85;0.90;;;10.30;99.90;;;;;;5004470;28;20113;-67
2022/07/08 12:20:11;;;;;;;2.28;0.90;;;10.20;99.90;;;;;;5009574;28;20048;-67
2022/07/08 12:22:49;;;;;;;1.80;0.68;;;10.30;99.90;;;;;;5007851;28;20026;-67
2022/07/08 12:25:18;;;;;;;2.50;1.23;;;10.20;99.90;;;;;;5004747;28;20028;-67
2022/07/08 12:27:56;;;;;;;2.60;1.08;;;10.20;99.90;;;;;;5008658;28;20030;-67
2022/07/08 12:30:28;;;;;;;2.47;0.88;;;10.20;99.90;;;;;;5013159;28;20491;-67
2022/07/08 12:33:00;;;;;;;5.47;1.23;;;10.20;99.90;;;;;;5010970;28;20109;-68
2022/07/08 12:35:29;;;;;;;4.50;1.33;;;10.30;99.90;;;;;;5007731;28;20042;-67
2022/07/08 12:38:11;;;;;;;2.78;1.08;;;10.30;99.90;;;;;;5012923;28;20100;-67
2022/07/08 12:40:40;;;;;;;2.60;1.17;;;10.40;99.90;;;;;;5009996;28;20121;-67
2022/07/08 12:43:09;;;;;;;3.28;0.95;;;10.50;99.90;;;;;;5011690;28;20037;-67
2022/07/08 12:45:37;;;;;;;2.42;0.85;;;10.40;99.90;;;;;;5009018;28;20033;-68
2022/07/08 12:48:04;;;;;;;2.30;0.80;;;10.40;99.90;;;;;;5012267;28;20482;-67
2022/07/08 12:50:33;;;;;;;1.77;0.88;;;10.40;99.90;;;;;;5013260;28;20113;-67
2022/07/08 12:53:01;;;;;;;3.20;1.00;;;10.40;99.90;;;;;;5007062;28;20513;-68
2022/07/08 12:55:29;;;;;;;3.53;0.73;;;10.30;99.90;;;;;;5012193;28;20028;-67
2022/07/08 12:57:57;;;;;;;2.97;0.90;;;10.30;99.90;;;;;;5014389;28;20034;-66
2022/07/08 13:00:24;;;;;;;3.33;0.98;;;10.30;99.90;;;;;;5007930;28;20083;-67